sensor_id;sensor_type;location;lat;lon;timestamp;P1;durP1;ratioP1;P2;durP2;ratioP2
7683;SDS011;3884;48.616;12.872;2024-01-15T00:02:07;54.77;;;30.87;;
7683;SDS011;3884;48.616;12.872;2024-01-15T00:04:35;56.97;;;31.90;;
7683;SDS011;3884;48.616;12.872;2024-01-15T00:07:04;53.83;;;33.37;;
7683;SDS011;3884;48.616;12.872;2024-01-15T00:09:32;55.37;;;32.60;;
7683;SDS011;3884;48.616;12.872;2024-01-15T00:11:59;53.33;;;31.87;;
7683;SDS011;3884;48.616;12.872;2024-01-15T00:14:26;51.87;;;31.83;;
7683;SDS011;3884;48.616;12.872;2024-01-15T00:16:54;55.30;;;33.23;;
7683;SDS011;3884;48.616;12.872;2024-01-15T00:19:21;50.73;;;31.03;;
7683;SDS011;3884;48.616;12.872;2024-01-15T00:21:49;57.37;;;32.63;;
7683;SDS011;3884;48.616;12.872;2024-01-15T00:24:17;56.73;;;32.67;;
7683;SDS011;3884;48.616;12.872;2024-01-15T00:26:44;55.10;;;31.30;;
7683;SDS011;3884;48.616;12.872;2024-01-15T00:29:11;53.03;;;31.20;;
7683;SDS011;3884;48.616;12.872;2024-01-15T00:31:38;55.07;;;32.23;;
7683;SDS011;3884;48.616;12.872;2024-01-15T00:34:05;52.57;;;32.07;;
7683;SDS011;3884;48.616;12.872;2024-01-15T00:36:31;51.47;;;30.80;;
7683;SDS011;3884;48.616;12.872;2024-01-15T00:38:58;49.70;;;29.77;;
7683;SDS011;3884;48.616;12.872;2024-01-15T00:41:26;53.77;;;31.27;;
7683;SDS011;3884;48.616;12.872;2024-01-15T00:43:53;51.77;;;32.47;;
7683;SDS011;3884;48.616;12.872;2024-01-15T00:46:20;49.93;;;31.10;;
7683;SDS011;3884;48.616;12.872;2024-01-15T00:48:47;48.90;;;31.67;;
7683;SDS011;3884;48.616;12.872;2024-01-15T00:51:14;53.53;;;30.73;;
7683;SDS011;3884;48.616;12.872;2024-01-15T00:53:41;48.70;;;31.03;;
7683;SDS011;3884;48.616;12.872;2024-01-15T00:56:08;50.03;;;29.63;;
7683;SDS011;3884;48.616;12.872;2024-01-15T00:58:36;49.23;;;31.23;;
7683;SDS011;3884;48.616;12.872;2024-01-15T01:01:03;47.33;;;29.60;;
7683;SDS011;3884;48.616;12.872;2024-01-15T01:03:30;48.20;;;30.55;;
7683;SDS011;3884;48.616;12.872;2024-01-15T01:05:57;48.60;;;30.63;;
7683;SDS011;3884;48.616;12.872;2024-01-15T01:08:23;40.67;;;26.53;;
7683;SDS011;3884;48.616;12.872;2024-01-15T01:10:50;43.53;;;27.03;;
7683;SDS011;3884;48.616;12.872;2024-01-15T01:13:17;44.87;;;27.23;;
7683;SDS011;3884;48.616;12.872;2024-01-15T01:15:45;42.33;;;25.90;;
7683;SDS011;3884;48.616;12.872;2024-01-15T01:18:12;42.03;;;26.27;;
7683;SDS011;3884;48.616;12.872;2024-01-15T01:20:39;43.30;;;27.67;;
7683;SDS011;3884;48.616;12.872;2024-01-15T01:23:06;41.43;;;26.23;;
7683;SDS011;3884;48.616;12.872;2024-01-15T01:25:32;43.73;;;26.43;;
7683;SDS011;3884;48.616;12.872;2024-01-15T01:27:59;35.60;;;23.03;;
7683;SDS011;3884;48.616;12.872;2024-01-15T01:30:26;37.57;;;23.80;;
7683;SDS011;3884;48.616;12.872;2024-01-15T01:32:54;38.10;;;22.83;;
7683;SDS011;3884;48.616;12.872;2024-01-15T01:35:21;32.47;;;21.93;;
7683;SDS011;3884;48.616;12.872;2024-01-15T01:37:48;35.03;;;22.33;;
7683;SDS011;3884;48.616;12.872;2024-01-15T01:40:15;37.33;;;21.77;;
7683;SDS011;3884;48.616;12.872;2024-01-15T01:42:43;32.93;;;22.57;;
7683;SDS011;3884;48.616;12.872;2024-01-15T01:45:10;40.07;;;24.10;;
7683;SDS011;3884;48.616;12.872;2024-01-15T01:47:37;37.60;;;24.80;;
7683;SDS011;3884;48.616;12.872;2024-01-15T01:50:05;37.03;;;23.40;;
7683;SDS011;3884;48.616;12.872;2024-01-15T01:52:33;37.40;;;24.57;;
7683;SDS011;3884;48.616;12.872;2024-01-15T01:55:02;42.20;;;24.37;;
7683;SDS011;3884;48.616;12.872;2024-01-15T01:57:30;36.70;;;23.63;;
7683;SDS011;3884;48.616;12.872;2024-01-15T01:59:59;42.27;;;25.70;;
7683;SDS011;3884;48.616;12.872;2024-01-15T02:02:26;41.13;;;23.77;;
7683;SDS011;3884;48.616;12.872;2024-01-15T02:04:53;40.17;;;26.47;;
7683;SDS011;3884;48.616;12.872;2024-01-15T02:07:21;40.63;;;25.27;;
7683;SDS011;3884;48.616;12.872;2024-01-15T02:09:49;43.37;;;27.50;;
7683;SDS011;3884;48.616;12.872;2024-01-15T02:12:16;46.20;;;27.60;;
7683;SDS011;3884;48.616;12.872;2024-01-15T02:14:43;38.37;;;23.37;;
7683;SDS011;3884;48.616;12.872;2024-01-15T02:17:10;41.83;;;25.10;;
7683;SDS011;3884;48.616;12.872;2024-01-15T02:19:36;43.10;;;26.40;;
7683;SDS011;3884;48.616;12.872;2024-01-15T02:22:04;41.63;;;25.87;;
7683;SDS011;3884;48.616;12.872;2024-01-15T02:24:32;43.63;;;25.43;;
7683;SDS011;3884;48.616;12.872;2024-01-15T02:26:59;38.77;;;25.33;;
7683;SDS011;3884;48.616;12.872;2024-01-15T02:29:26;44.67;;;26.97;;
7683;SDS011;3884;48.616;12.872;2024-01-15T02:31:53;42.07;;;25.13;;
7683;SDS011;3884;48.616;12.872;2024-01-15T02:34:21;44.70;;;25.63;;
7683;SDS011;3884;48.616;12.872;2024-01-15T02:36:47;42.07;;;26.00;;
7683;SDS011;3884;48.616;12.872;2024-01-15T02:39:14;39.97;;;25.03;;
7683;SDS011;3884;48.616;12.872;2024-01-15T02:41:42;43.13;;;25.97;;
7683;SDS011;3884;48.616;12.872;2024-01-15T02:44:09;39.33;;;24.57;;
7683;SDS011;3884;48.616;12.872;2024-01-15T02:46:36;44.40;;;25.40;;
7683;SDS011;3884;48.616;12.872;2024-01-15T02:49:03;40.23;;;23.00;;
7683;SDS011;3884;48.616;12.872;2024-01-15T02:51:29;43.63;;;25.23;;
7683;SDS011;3884;48.616;12.872;2024-01-15T02:53:56;37.20;;;22.97;;
7683;SDS011;3884;48.616;12.872;2024-01-15T02:56:23;42.73;;;24.77;;
7683;SDS011;3884;48.616;12.872;2024-01-15T02:58:51;41.90;;;24.57;;
7683;SDS011;3884;48.616;12.872;2024-01-15T03:01:18;42.03;;;24.83;;
7683;SDS011;3884;48.616;12.872;2024-01-15T03:03:45;42.80;;;24.67;;
7683;SDS011;3884;48.616;12.872;2024-01-15T03:06:12;40.90;;;23.87;;
7683;SDS011;3884;48.616;12.872;2024-01-15T03:08:39;42.43;;;23.97;;
7683;SDS011;3884;48.616;12.872;2024-01-15T03:11:06;39.53;;;23.53;;
7683;SDS011;3884;48.616;12.872;2024-01-15T03:13:35;36.43;;;22.83;;
7683;SDS011;3884;48.616;12.872;2024-01-15T03:16:04;53.97;;;31.97;;
7683;SDS011;3884;48.616;12.872;2024-01-15T03:18:31;40.53;;;25.20;;
7683;SDS011;3884;48.616;12.872;2024-01-15T03:20:58;38.03;;;23.40;;
7683;SDS011;3884;48.616;12.872;2024-01-15T03:23:26;38.33;;;23.60;;
7683;SDS011;3884;48.616;12.872;2024-01-15T03:25:53;38.13;;;23.17;;
7683;SDS011;3884;48.616;12.872;2024-01-15T03:28:19;39.20;;;25.00;;
7683;SDS011;3884;48.616;12.872;2024-01-15T03:30:45;37.03;;;22.43;;
7683;SDS011;3884;48.616;12.872;2024-01-15T03:33:14;36.03;;;21.87;;
7683;SDS011;3884;48.616;12.872;2024-01-15T03:35:42;34.67;;;21.67;;
7683;SDS011;3884;48.616;12.872;2024-01-15T03:38:08;39.57;;;22.17;;
7683;SDS011;3884;48.616;12.872;2024-01-15T03:40:35;35.93;;;22.93;;
7683;SDS011;3884;48.616;12.872;2024-01-15T03:43:02;37.33;;;22.33;;
7683;SDS011;3884;48.616;12.872;2024-01-15T03:45:29;37.63;;;21.70;;
7683;SDS011;3884;48.616;12.872;2024-01-15T03:47:56;35.13;;;21.13;;
7683;SDS011;3884;48.616;12.872;2024-01-15T03:50:24;36.47;;;21.83;;
7683;SDS011;3884;48.616;12.872;2024-01-15T03:52:51;34.57;;;21.40;;
7683;SDS011;3884;48.616;12.872;2024-01-15T03:55:18;37.43;;;22.93;;
7683;SDS011;3884;48.616;12.872;2024-01-15T03:57:45;37.87;;;21.50;;
7683;SDS011;3884;48.616;12.872;2024-01-15T04:00:12;35.20;;;21.43;;
7683;SDS011;3884;48.616;12.872;2024-01-15T04:02:42;34.67;;;20.13;;
7683;SDS011;3884;48.616;12.872;2024-01-15T04:05:09;34.83;;;19.33;;
7683;SDS011;3884;48.616;12.872;2024-01-15T04:07:37;35.20;;;20.73;;
7683;SDS011;3884;48.616;12.872;2024-01-15T04:10:05;33.07;;;21.47;;
7683;SDS011;3884;48.616;12.872;2024-01-15T04:12:32;33.57;;;19.77;;
7683;SDS011;3884;48.616;12.872;2024-01-15T04:14:59;35.60;;;18.97;;
7683;SDS011;3884;48.616;12.872;2024-01-15T04:17:26;30.80;;;18.27;;
7683;SDS011;3884;48.616;12.872;2024-01-15T04:19:53;34.40;;;19.13;;
7683;SDS011;3884;48.616;12.872;2024-01-15T04:22:20;29.97;;;17.70;;
7683;SDS011;3884;48.616;12.872;2024-01-15T04:24:48;30.50;;;18.00;;
7683;SDS011;3884;48.616;12.872;2024-01-15T04:27:15;31.53;;;18.10;;
7683;SDS011;3884;48.616;12.872;2024-01-15T04:29:42;30.10;;;17.97;;
7683;SDS011;3884;48.616;12.872;2024-01-15T04:32:10;30.77;;;19.10;;
7683;SDS011;3884;48.616;12.872;2024-01-15T04:34:37;30.37;;;18.20;;
7683;SDS011;3884;48.616;12.872;2024-01-15T04:37:03;35.67;;;19.83;;
7683;SDS011;3884;48.616;12.872;2024-01-15T04:39:30;33.63;;;19.73;;
7683;SDS011;3884;48.616;12.872;2024-01-15T04:41:58;29.53;;;18.03;;
7683;SDS011;3884;48.616;12.872;2024-01-15T04:44:25;29.07;;;18.13;;
7683;SDS011;3884;48.616;12.872;2024-01-15T04:46:52;32.53;;;19.20;;
7683;SDS011;3884;48.616;12.872;2024-01-15T04:49:19;30.27;;;17.93;;
7683;SDS011;3884;48.616;12.872;2024-01-15T04:51:46;32.07;;;19.70;;
7683;SDS011;3884;48.616;12.872;2024-01-15T04:54:13;29.80;;;18.17;;
7683;SDS011;3884;48.616;12.872;2024-01-15T04:56:42;29.03;;;18.50;;
7683;SDS011;3884;48.616;12.872;2024-01-15T04:59:11;32.87;;;18.90;;
7683;SDS011;3884;48.616;12.872;2024-01-15T05:01:37;28.97;;;17.17;;
7683;SDS011;3884;48.616;12.872;2024-01-15T05:04:04;29.57;;;18.53;;
7683;SDS011;3884;48.616;12.872;2024-01-15T05:06:31;28.83;;;17.53;;
7683;SDS011;3884;48.616;12.872;2024-01-15T05:08:58;29.57;;;17.50;;
7683;SDS011;3884;48.616;12.872;2024-01-15T05:11:25;27.67;;;16.73;;
7683;SDS011;3884;48.616;12.872;2024-01-15T05:13:52;25.97;;;16.43;;
7683;SDS011;3884;48.616;12.872;2024-01-15T05:16:20;28.43;;;16.97;;
7683;SDS011;3884;48.616;12.872;2024-01-15T05:18:47;28.73;;;17.77;;
7683;SDS011;3884;48.616;12.872;2024-01-15T05:21:14;26.77;;;16.43;;
7683;SDS011;3884;48.616;12.872;2024-01-15T05:23:41;29.03;;;17.13;;
7683;SDS011;3884;48.616;12.872;2024-01-15T05:26:08;28.23;;;16.60;;
7683;SDS011;3884;48.616;12.872;2024-01-15T05:28:35;27.23;;;16.70;;
7683;SDS011;3884;48.616;12.872;2024-01-15T05:31:01;29.57;;;16.63;;
7683;SDS011;3884;48.616;12.872;2024-01-15T05:33:30;26.87;;;15.47;;
7683;SDS011;3884;48.616;12.872;2024-01-15T05:35:57;27.17;;;16.77;;
7683;SDS011;3884;48.616;12.872;2024-01-15T05:38:24;25.53;;;15.73;;
7683;SDS011;3884;48.616;12.872;2024-01-15T05:40:51;25.87;;;15.80;;
7683;SDS011;3884;48.616;12.872;2024-01-15T05:43:18;23.60;;;14.37;;
7683;SDS011;3884;48.616;12.872;2024-01-15T05:45:45;24.07;;;14.40;;
7683;SDS011;3884;48.616;12.872;2024-01-15T05:48:12;23.30;;;14.70;;
7683;SDS011;3884;48.616;12.872;2024-01-15T05:50:41;26.73;;;16.73;;
7683;SDS011;3884;48.616;12.872;2024-01-15T05:53:08;30.07;;;19.60;;
7683;SDS011;3884;48.616;12.872;2024-01-15T05:55:35;29.53;;;21.00;;
7683;SDS011;3884;48.616;12.872;2024-01-15T05:58:02;25.57;;;16.47;;
7683;SDS011;3884;48.616;12.872;2024-01-15T06:00:30;30.70;;;20.47;;
7683;SDS011;3884;48.616;12.872;2024-01-15T06:02:58;21.83;;;14.23;;
7683;SDS011;3884;48.616;12.872;2024-01-15T06:05:25;21.47;;;13.23;;
7683;SDS011;3884;48.616;12.872;2024-01-15T06:07:53;22.60;;;13.27;;
7683;SDS011;3884;48.616;12.872;2024-01-15T06:10:20;20.53;;;14.00;;
7683;SDS011;3884;48.616;12.872;2024-01-15T06:12:46;24.60;;;16.77;;
7683;SDS011;3884;48.616;12.872;2024-01-15T06:15:13;22.37;;;14.37;;
7683;SDS011;3884;48.616;12.872;2024-01-15T06:17:40;23.87;;;15.93;;
7683;SDS011;3884;48.616;12.872;2024-01-15T06:20:07;25.07;;;14.77;;
7683;SDS011;3884;48.616;12.872;2024-01-15T06:22:35;25.03;;;16.50;;
7683;SDS011;3884;48.616;12.872;2024-01-15T06:25:06;21.50;;;15.90;;
7683;SDS011;3884;48.616;12.872;2024-01-15T06:27:33;19.43;;;13.23;;
7683;SDS011;3884;48.616;12.872;2024-01-15T06:30:00;26.53;;;20.17;;
7683;SDS011;3884;48.616;12.872;2024-01-15T06:32:28;20.83;;;14.93;;
7683;SDS011;3884;48.616;12.872;2024-01-15T06:34:55;23.40;;;16.40;;
7683;SDS011;3884;48.616;12.872;2024-01-15T06:37:22;17.10;;;12.20;;
7683;SDS011;3884;48.616;12.872;2024-01-15T06:39:49;20.67;;;16.13;;
7683;SDS011;3884;48.616;12.872;2024-01-15T06:42:18;33.30;;;25.20;;
7683;SDS011;3884;48.616;12.872;2024-01-15T06:44:47;18.77;;;12.70;;
7683;SDS011;3884;48.616;12.872;2024-01-15T06:47:14;16.30;;;10.60;;
7683;SDS011;3884;48.616;12.872;2024-01-15T06:49:42;18.93;;;11.53;;
7683;SDS011;3884;48.616;12.872;2024-01-15T06:52:09;16.67;;;11.90;;
7683;SDS011;3884;48.616;12.872;2024-01-15T06:54:36;16.27;;;11.33;;
7683;SDS011;3884;48.616;12.872;2024-01-15T06:57:03;16.30;;;10.70;;
7683;SDS011;3884;48.616;12.872;2024-01-15T06:59:33;15.47;;;11.03;;
7683;SDS011;3884;48.616;12.872;2024-01-15T07:02:00;16.17;;;10.20;;
7683;SDS011;3884;48.616;12.872;2024-01-15T07:04:27;14.37;;;10.13;;
7683;SDS011;3884;48.616;12.872;2024-01-15T07:06:55;15.47;;;10.43;;
7683;SDS011;3884;48.616;12.872;2024-01-15T07:09:22;16.17;;;10.37;;
7683;SDS011;3884;48.616;12.872;2024-01-15T07:11:49;14.47;;;10.23;;
7683;SDS011;3884;48.616;12.872;2024-01-15T07:14:16;20.80;;;14.17;;
7683;SDS011;3884;48.616;12.872;2024-01-15T07:16:44;17.90;;;13.93;;
7683;SDS011;3884;48.616;12.872;2024-01-15T07:19:11;16.13;;;10.97;;
7683;SDS011;3884;48.616;12.872;2024-01-15T07:21:38;13.37;;;9.70;;
7683;SDS011;3884;48.616;12.872;2024-01-15T07:24:08;12.37;;;8.40;;
7683;SDS011;3884;48.616;12.872;2024-01-15T07:26:35;11.27;;;7.90;;
7683;SDS011;3884;48.616;12.872;2024-01-15T07:29:02;13.73;;;8.60;;
7683;SDS011;3884;48.616;12.872;2024-01-15T07:31:29;11.47;;;8.27;;
7683;SDS011;3884;48.616;12.872;2024-01-15T07:33:57;14.20;;;9.63;;
7683;SDS011;3884;48.616;12.872;2024-01-15T07:36:25;12.47;;;8.30;;
7683;SDS011;3884;48.616;12.872;2024-01-15T07:38:52;11.23;;;8.17;;
7683;SDS011;3884;48.616;12.872;2024-01-15T07:41:18;13.53;;;8.07;;
7683;SDS011;3884;48.616;12.872;2024-01-15T07:43:45;12.27;;;8.67;;
7683;SDS011;3884;48.616;12.872;2024-01-15T07:46:12;12.07;;;8.40;;
7683;SDS011;3884;48.616;12.872;2024-01-15T07:48:39;13.17;;;8.07;;
7683;SDS011;3884;48.616;12.872;2024-01-15T07:51:07;12.13;;;8.30;;
7683;SDS011;3884;48.616;12.872;2024-01-15T07:53:34;11.53;;;8.90;;
7683;SDS011;3884;48.616;12.872;2024-01-15T07:56:01;11.73;;;9.10;;
7683;SDS011;3884;48.616;12.872;2024-01-15T07:58:28;12.07;;;8.73;;
7683;SDS011;3884;48.616;12.872;2024-01-15T08:00:55;12.13;;;9.43;;
7683;SDS011;3884;48.616;12.872;2024-01-15T08:03:22;10.83;;;7.80;;
7683;SDS011;3884;48.616;12.872;2024-01-15T08:05:49;11.70;;;8.37;;
7683;SDS011;3884;48.616;12.872;2024-01-15T08:08:19;15.93;;;12.33;;
7683;SDS011;3884;48.616;12.872;2024-01-15T08:10:47;12.50;;;8.70;;
7683;SDS011;3884;48.616;12.872;2024-01-15T08:13:14;11.47;;;8.13;;
7683;SDS011;3884;48.616;12.872;2024-01-15T08:15:41;11.83;;;8.10;;
7683;SDS011;3884;48.616;12.872;2024-01-15T08:18:08;11.30;;;7.73;;
7683;SDS011;3884;48.616;12.872;2024-01-15T08:20:35;10.77;;;7.30;;
7683;SDS011;3884;48.616;12.872;2024-01-15T08:23:02;10.03;;;7.30;;
7683;SDS011;3884;48.616;12.872;2024-01-15T08:25:31;10.67;;;7.50;;
7683;SDS011;3884;48.616;12.872;2024-01-15T08:27:58;11.43;;;7.50;;
7683;SDS011;3884;48.616;12.872;2024-01-15T08:30:25;11.40;;;8.00;;
7683;SDS011;3884;48.616;12.872;2024-01-15T08:32:53;10.67;;;7.70;;
7683;SDS011;3884;48.616;12.872;2024-01-15T08:35:19;14.93;;;6.80;;
7683;SDS011;3884;48.616;12.872;2024-01-15T08:37:48;9.63;;;7.63;;
7683;SDS011;3884;48.616;12.872;2024-01-15T08:40:15;10.30;;;7.27;;
7683;SDS011;3884;48.616;12.872;2024-01-15T08:42:43;10.87;;;6.90;;
7683;SDS011;3884;48.616;12.872;2024-01-15T08:45:11;11.40;;;8.63;;
7683;SDS011;3884;48.616;12.872;2024-01-15T08:47:39;10.67;;;8.47;;
7683;SDS011;3884;48.616;12.872;2024-01-15T08:50:07;12.93;;;7.47;;
7683;SDS011;3884;48.616;12.872;2024-01-15T08:52:35;10.80;;;7.83;;
7683;SDS011;3884;48.616;12.872;2024-01-15T08:55:03;14.40;;;9.77;;
7683;SDS011;3884;48.616;12.872;2024-01-15T08:57:32;10.30;;;7.63;;
7683;SDS011;3884;48.616;12.872;2024-01-15T09:00:00;12.37;;;8.07;;
7683;SDS011;3884;48.616;12.872;2024-01-15T09:02:28;11.37;;;8.10;;
7683;SDS011;3884;48.616;12.872;2024-01-15T09:04:55;9.50;;;7.13;;
7683;SDS011;3884;48.616;12.872;2024-01-15T09:07:22;15.07;;;10.40;;
7683;SDS011;3884;48.616;12.872;2024-01-15T09:09:50;9.27;;;7.03;;
7683;SDS011;3884;48.616;12.872;2024-01-15T09:12:17;11.80;;;7.67;;
7683;SDS011;3884;48.616;12.872;2024-01-15T09:14:45;10.00;;;6.73;;
7683;SDS011;3884;48.616;12.872;2024-01-15T09:17:14;10.10;;;7.00;;
7683;SDS011;3884;48.616;12.872;2024-01-15T09:19:41;9.23;;;6.97;;
7683;SDS011;3884;48.616;12.872;2024-01-15T09:22:08;9.87;;;7.10;;
7683;SDS011;3884;48.616;12.872;2024-01-15T09:24:35;10.97;;;7.47;;
7683;SDS011;3884;48.616;12.872;2024-01-15T09:27:03;9.87;;;6.90;;
7683;SDS011;3884;48.616;12.872;2024-01-15T09:29:30;8.77;;;6.83;;
7683;SDS011;3884;48.616;12.872;2024-01-15T09:31:57;10.50;;;6.93;;
7683;SDS011;3884;48.616;12.872;2024-01-15T09:34:25;8.20;;;6.77;;
7683;SDS011;3884;48.616;12.872;2024-01-15T09:36:52;8.63;;;6.30;;
7683;SDS011;3884;48.616;12.872;2024-01-15T09:39:19;10.53;;;6.80;;
7683;SDS011;3884;48.616;12.872;2024-01-15T09:41:46;11.80;;;6.67;;
7683;SDS011;3884;48.616;12.872;2024-01-15T09:44:14;10.63;;;7.90;;
7683;SDS011;3884;48.616;12.872;2024-01-15T09:46:42;11.03;;;7.17;;
7683;SDS011;3884;48.616;12.872;2024-01-15T09:49:10;12.23;;;8.00;;
7683;SDS011;3884;48.616;12.872;2024-01-15T09:51:38;9.70;;;6.40;;
7683;SDS011;3884;48.616;12.872;2024-01-15T09:54:06;10.10;;;6.33;;
7683;SDS011;3884;48.616;12.872;2024-01-15T09:56:38;9.13;;;6.23;;
7683;SDS011;3884;48.616;12.872;2024-01-15T09:59:06;8.20;;;5.90;;
7683;SDS011;3884;48.616;12.872;2024-01-15T10:01:34;24.77;;;10.07;;
7683;SDS011;3884;48.616;12.872;2024-01-15T10:04:04;9.90;;;6.20;;
7683;SDS011;3884;48.616;12.872;2024-01-15T10:06:32;9.80;;;6.50;;
7683;SDS011;3884;48.616;12.872;2024-01-15T10:09:01;10.63;;;7.53;;
7683;SDS011;3884;48.616;12.872;2024-01-15T10:11:28;9.33;;;6.10;;
7683;SDS011;3884;48.616;12.872;2024-01-15T10:13:57;8.47;;;6.17;;
7683;SDS011;3884;48.616;12.872;2024-01-15T10:16:26;7.30;;;5.37;;
7683;SDS011;3884;48.616;12.872;2024-01-15T10:18:54;7.23;;;5.37;;
7683;SDS011;3884;48.616;12.872;2024-01-15T10:21:21;8.10;;;5.37;;
7683;SDS011;3884;48.616;12.872;2024-01-15T10:23:51;9.27;;;7.77;;
7683;SDS011;3884;48.616;12.872;2024-01-15T10:26:20;6.10;;;4.93;;
7683;SDS011;3884;48.616;12.872;2024-01-15T10:28:51;7.70;;;5.40;;
7683;SDS011;3884;48.616;12.872;2024-01-15T10:31:18;6.37;;;5.23;;
7683;SDS011;3884;48.616;12.872;2024-01-15T10:33:47;8.70;;;5.30;;
7683;SDS011;3884;48.616;12.872;2024-01-15T10:36:14;9.77;;;5.47;;
7683;SDS011;3884;48.616;12.872;2024-01-15T10:38:42;7.03;;;4.70;;
7683;SDS011;3884;48.616;12.872;2024-01-15T10:41:09;6.93;;;4.83;;
7683;SDS011;3884;48.616;12.872;2024-01-15T10:43:38;7.53;;;5.30;;
7683;SDS011;3884;48.616;12.872;2024-01-15T10:46:06;6.37;;;4.60;;
7683;SDS011;3884;48.616;12.872;2024-01-15T10:48:33;7.33;;;5.00;;
7683;SDS011;3884;48.616;12.872;2024-01-15T10:51:01;7.50;;;5.23;;
7683;SDS011;3884;48.616;12.872;2024-01-15T10:53:35;6.87;;;5.20;;
7683;SDS011;3884;48.616;12.872;2024-01-15T10:56:04;6.00;;;4.60;;
7683;SDS011;3884;48.616;12.872;2024-01-15T10:58:32;6.57;;;4.40;;
7683;SDS011;3884;48.616;12.872;2024-01-15T11:01:02;5.97;;;4.50;;
7683;SDS011;3884;48.616;12.872;2024-01-15T11:03:30;5.80;;;4.07;;
7683;SDS011;3884;48.616;12.872;2024-01-15T11:05:57;4.93;;;3.93;;
7683;SDS011;3884;48.616;12.872;2024-01-15T11:08:25;5.10;;;3.80;;
7683;SDS011;3884;48.616;12.872;2024-01-15T11:10:53;6.00;;;4.33;;
7683;SDS011;3884;48.616;12.872;2024-01-15T11:13:20;8.17;;;4.67;;
7683;SDS011;3884;48.616;12.872;2024-01-15T11:15:54;4.60;;;3.80;;
7683;SDS011;3884;48.616;12.872;2024-01-15T11:18:23;5.27;;;3.77;;
7683;SDS011;3884;48.616;12.872;2024-01-15T11:23:53;6.40;;;4.00;;
7683;SDS011;3884;48.616;12.872;2024-01-15T11:26:32;6.03;;;3.80;;
7683;SDS011;3884;48.616;12.872;2024-01-15T11:29:01;5.47;;;3.83;;
7683;SDS011;3884;48.616;12.872;2024-01-15T11:34:50;5.13;;;4.00;;
7683;SDS011;3884;48.616;12.872;2024-01-15T11:37:19;5.03;;;3.63;;
7683;SDS011;3884;48.616;12.872;2024-01-15T11:39:46;4.70;;;3.67;;
7683;SDS011;3884;48.616;12.872;2024-01-15T11:42:14;4.03;;;3.50;;
7683;SDS011;3884;48.616;12.872;2024-01-15T11:44:41;6.23;;;3.93;;
7683;SDS011;3884;48.616;12.872;2024-01-15T11:47:10;4.70;;;3.57;;
7683;SDS011;3884;48.616;12.872;2024-01-15T11:49:56;4.30;;;3.50;;
7683;SDS011;3884;48.616;12.872;2024-01-15T11:52:26;4.10;;;3.13;;
7683;SDS011;3884;48.616;12.872;2024-01-15T11:55:00;3.73;;;2.97;;
7683;SDS011;3884;48.616;12.872;2024-01-15T11:57:37;4.73;;;3.70;;
7683;SDS011;3884;48.616;12.872;2024-01-15T12:00:08;5.37;;;3.20;;
7683;SDS011;3884;48.616;12.872;2024-01-15T12:02:40;6.33;;;3.60;;
7683;SDS011;3884;48.616;12.872;2024-01-15T12:05:09;5.70;;;3.10;;
7683;SDS011;3884;48.616;12.872;2024-01-15T12:07:38;4.80;;;3.43;;
7683;SDS011;3884;48.616;12.872;2024-01-15T12:10:08;4.87;;;3.13;;
7683;SDS011;3884;48.616;12.872;2024-01-15T12:12:48;5.63;;;3.77;;
7683;SDS011;3884;48.616;12.872;2024-01-15T12:15:25;5.60;;;4.00;;
7683;SDS011;3884;48.616;12.872;2024-01-15T12:17:54;4.93;;;3.70;;
7683;SDS011;3884;48.616;12.872;2024-01-15T12:20:24;5.20;;;3.90;;
7683;SDS011;3884;48.616;12.872;2024-01-15T12:22:51;4.37;;;3.53;;
7683;SDS011;3884;48.616;12.872;2024-01-15T12:25:18;4.23;;;3.30;;
7683;SDS011;3884;48.616;12.872;2024-01-15T12:27:45;8.40;;;3.73;;
7683;SDS011;3884;48.616;12.872;2024-01-15T12:30:13;4.80;;;3.40;;
7683;SDS011;3884;48.616;12.872;2024-01-15T12:32:40;4.97;;;3.43;;
7683;SDS011;3884;48.616;12.872;2024-01-15T12:35:07;5.03;;;3.20;;
7683;SDS011;3884;48.616;12.872;2024-01-15T12:37:36;4.43;;;3.60;;
7683;SDS011;3884;48.616;12.872;2024-01-15T12:40:03;5.17;;;3.30;;
7683;SDS011;3884;48.616;12.872;2024-01-15T12:42:32;4.83;;;3.57;;
7683;SDS011;3884;48.616;12.872;2024-01-15T12:44:59;5.37;;;3.30;;
7683;SDS011;3884;48.616;12.872;2024-01-15T12:47:26;5.90;;;3.90;;
7683;SDS011;3884;48.616;12.872;2024-01-15T12:49:53;4.43;;;3.60;;
7683;SDS011;3884;48.616;12.872;2024-01-15T12:52:20;5.33;;;3.67;;
7683;SDS011;3884;48.616;12.872;2024-01-15T12:54:49;4.40;;;3.30;;
7683;SDS011;3884;48.616;12.872;2024-01-15T12:57:16;4.67;;;3.10;;
7683;SDS011;3884;48.616;12.872;2024-01-15T12:59:43;4.47;;;3.07;;
7683;SDS011;3884;48.616;12.872;2024-01-15T13:02:10;6.60;;;3.77;;
7683;SDS011;3884;48.616;12.872;2024-01-15T13:04:37;3.87;;;3.17;;
7683;SDS011;3884;48.616;12.872;2024-01-15T13:07:04;5.87;;;3.30;;
7683;SDS011;3884;48.616;12.872;2024-01-15T13:09:31;4.53;;;3.13;;
7683;SDS011;3884;48.616;12.872;2024-01-15T13:12:00;4.90;;;3.40;;
7683;SDS011;3884;48.616;12.872;2024-01-15T13:14:27;4.13;;;3.50;;
7683;SDS011;3884;48.616;12.872;2024-01-15T13:17:06;4.63;;;3.63;;
7683;SDS011;3884;48.616;12.872;2024-01-15T13:19:33;5.00;;;3.40;;
7683;SDS011;3884;48.616;12.872;2024-01-15T13:22:00;7.83;;;6.40;;
7683;SDS011;3884;48.616;12.872;2024-01-15T13:24:28;8.97;;;5.10;;
7683;SDS011;3884;48.616;12.872;2024-01-15T13:26:55;9.40;;;5.20;;
7683;SDS011;3884;48.616;12.872;2024-01-15T13:29:24;6.73;;;4.60;;
7683;SDS011;3884;48.616;12.872;2024-01-15T13:31:50;5.40;;;3.37;;
7683;SDS011;3884;48.616;12.872;2024-01-15T13:34:17;6.10;;;4.80;;
7683;SDS011;3884;48.616;12.872;2024-01-15T13:36:46;5.80;;;4.23;;
7683;SDS011;3884;48.616;12.872;2024-01-15T13:39:15;9.73;;;6.30;;
7683;SDS011;3884;48.616;12.872;2024-01-15T13:41:45;6.17;;;4.07;;
7683;SDS011;3884;48.616;12.872;2024-01-15T13:44:12;5.47;;;4.23;;
7683;SDS011;3884;48.616;12.872;2024-01-15T13:46:40;5.83;;;4.43;;
7683;SDS011;3884;48.616;12.872;2024-01-15T13:49:07;15.67;;;9.13;;
7683;SDS011;3884;48.616;12.872;2024-01-15T13:51:35;17.30;;;10.13;;
7683;SDS011;3884;48.616;12.872;2024-01-15T13:54:02;8.00;;;5.87;;
7683;SDS011;3884;48.616;12.872;2024-01-15T13:56:30;7.77;;;6.00;;
7683;SDS011;3884;48.616;12.872;2024-01-15T13:58:57;5.37;;;3.50;;
7683;SDS011;3884;48.616;12.872;2024-01-15T14:01:24;10.03;;;6.93;;
7683;SDS011;3884;48.616;12.872;2024-01-15T14:03:53;5.90;;;4.80;;
7683;SDS011;3884;48.616;12.872;2024-01-15T14:06:20;6.37;;;5.00;;
7683;SDS011;3884;48.616;12.872;2024-01-15T14:08:47;4.87;;;3.70;;
7683;SDS011;3884;48.616;12.872;2024-01-15T14:11:14;3.93;;;3.53;;
7683;SDS011;3884;48.616;12.872;2024-01-15T14:13:41;4.03;;;3.10;;
7683;SDS011;3884;48.616;12.872;2024-01-15T14:16:08;5.97;;;4.07;;
7683;SDS011;3884;48.616;12.872;2024-01-15T14:18:36;5.23;;;4.50;;
7683;SDS011;3884;48.616;12.872;2024-01-15T14:21:04;5.63;;;3.80;;
7683;SDS011;3884;48.616;12.872;2024-01-15T14:23:31;3.80;;;3.40;;
7683;SDS011;3884;48.616;12.872;2024-01-15T14:25:58;4.60;;;3.73;;
7683;SDS011;3884;48.616;12.872;2024-01-15T14:28:25;4.50;;;4.03;;
7683;SDS011;3884;48.616;12.872;2024-01-15T14:30:53;3.23;;;2.93;;
7683;SDS011;3884;48.616;12.872;2024-01-15T14:33:23;4.27;;;3.07;;
7683;SDS011;3884;48.616;12.872;2024-01-15T14:35:51;3.70;;;3.00;;
7683;SDS011;3884;48.616;12.872;2024-01-15T14:38:19;5.73;;;3.10;;
7683;SDS011;3884;48.616;12.872;2024-01-15T14:40:46;4.47;;;2.93;;
7683;SDS011;3884;48.616;12.872;2024-01-15T14:43:14;3.87;;;2.80;;
7683;SDS011;3884;48.616;12.872;2024-01-15T14:45:41;3.33;;;2.63;;
7683;SDS011;3884;48.616;12.872;2024-01-15T14:48:08;4.67;;;3.47;;
7683;SDS011;3884;48.616;12.872;2024-01-15T14:50:35;6.53;;;3.80;;
7683;SDS011;3884;48.616;12.872;2024-01-15T14:53:02;3.57;;;3.17;;
7683;SDS011;3884;48.616;12.872;2024-01-15T14:55:30;6.17;;;4.03;;